sensor_id;sensor_type;location;lat;lon;timestamp;P1;durP1;ratioP1;P2;durP2;ratioP2
44456;SDS011;30159;49.316;8.558;2023-09-07T00:01:47;3.90;;;2.77;;
44456;SDS011;30159;49.316;8.558;2023-09-07T00:04:13;2.77;;;2.27;;
44456;SDS011;30159;49.316;8.558;2023-09-07T00:06:40;2.50;;;2.30;;
44456;SDS011;30159;49.316;8.558;2023-09-07T00:09:07;4.37;;;2.97;;
44456;SDS011;30159;49.316;8.558;2023-09-07T00:11:34;3.00;;;2.40;;
44456;SDS011;30159;49.316;8.558;2023-09-07T00:14:00;2.77;;;2.57;;
44456;SDS011;30159;49.316;8.558;2023-09-07T00:16:27;2.30;;;2.10;;
44456;SDS011;30159;49.316;8.558;2023-09-07T00:18:56;2.73;;;2.20;;
44456;SDS011;30159;49.316;8.558;2023-09-07T00:21:23;3.70;;;2.50;;
44456;SDS011;30159;49.316;8.558;2023-09-07T00:23:49;4.10;;;2.30;;
44456;SDS011;30159;49.316;8.558;2023-09-07T00:26:16;2.00;;;1.90;;
44456;SDS011;30159;49.316;8.558;2023-09-07T00:28:44;2.53;;;2.07;;
44456;SDS011;30159;49.316;8.558;2023-09-07T00:31:10;2.40;;;2.20;;
44456;SDS011;30159;49.316;8.558;2023-09-07T00:33:37;3.27;;;2.40;;
44456;SDS011;30159;49.316;8.558;2023-09-07T00:36:05;2.37;;;2.17;;
44456;SDS011;30159;49.316;8.558;2023-09-07T00:38:32;2.20;;;2.00;;
44456;SDS011;30159;49.316;8.558;2023-09-07T00:40:58;3.03;;;2.00;;
44456;SDS011;30159;49.316;8.558;2023-09-07T00:43:25;2.47;;;1.90;;
44456;SDS011;30159;49.316;8.558;2023-09-07T00:45:51;2.10;;;1.90;;
44456;SDS011;30159;49.316;8.558;2023-09-07T00:48:19;2.87;;;1.90;;
44456;SDS011;30159;49.316;8.558;2023-09-07T00:50:45;2.37;;;2.10;;
44456;SDS011;30159;49.316;8.558;2023-09-07T00:53:14;2.20;;;2.00;;
44456;SDS011;30159;49.316;8.558;2023-09-07T00:55:41;5.00;;;1.60;;
44456;SDS011;30159;49.316;8.558;2023-09-07T00:58:08;2.80;;;2.30;;
44456;SDS011;30159;49.316;8.558;2023-09-07T01:00:36;8.43;;;2.63;;
44456;SDS011;30159;49.316;8.558;2023-09-07T01:03:03;2.33;;;2.13;;
44456;SDS011;30159;49.316;8.558;2023-09-07T01:05:32;3.50;;;2.13;;
44456;SDS011;30159;49.316;8.558;2023-09-07T01:08:03;2.30;;;2.10;;
44456;SDS011;30159;49.316;8.558;2023-09-07T01:10:38;6.00;;;2.10;;
44456;SDS011;30159;49.316;8.558;2023-09-07T01:13:05;2.87;;;2.50;;
44456;SDS011;30159;49.316;8.558;2023-09-07T01:15:31;3.07;;;2.40;;
44456;SDS011;30159;49.316;8.558;2023-09-07T01:17:58;2.67;;;2.37;;
44456;SDS011;30159;49.316;8.558;2023-09-07T01:20:25;3.30;;;2.50;;
44456;SDS011;30159;49.316;8.558;2023-09-07T01:22:53;3.70;;;2.40;;
44456;SDS011;30159;49.316;8.558;2023-09-07T01:25:21;2.47;;;2.03;;
44456;SDS011;30159;49.316;8.558;2023-09-07T01:27:47;2.73;;;2.17;;
44456;SDS011;30159;49.316;8.558;2023-09-07T01:30:15;2.30;;;2.10;;
44456;SDS011;30159;49.316;8.558;2023-09-07T01:32:43;2.43;;;2.27;;
44456;SDS011;30159;49.316;8.558;2023-09-07T01:35:10;2.40;;;2.10;;
44456;SDS011;30159;49.316;8.558;2023-09-07T01:37:37;2.10;;;1.90;;
44456;SDS011;30159;49.316;8.558;2023-09-07T01:40:05;4.10;;;2.50;;
44456;SDS011;30159;49.316;8.558;2023-09-07T01:42:33;2.60;;;2.20;;
44456;SDS011;30159;49.316;8.558;2023-09-07T01:45:00;4.60;;;2.00;;
44456;SDS011;30159;49.316;8.558;2023-09-07T01:47:29;3.17;;;2.43;;
44456;SDS011;30159;49.316;8.558;2023-09-07T01:49:56;3.43;;;2.67;;
44456;SDS011;30159;49.316;8.558;2023-09-07T01:52:22;2.10;;;1.90;;
44456;SDS011;30159;49.316;8.558;2023-09-07T01:54:49;2.80;;;1.80;;
44456;SDS011;30159;49.316;8.558;2023-09-07T01:57:17;2.03;;;1.73;;
44456;SDS011;30159;49.316;8.558;2023-09-07T01:59:44;1.60;;;1.50;;
44456;SDS011;30159;49.316;8.558;2023-09-07T02:02:10;2.37;;;1.80;;
44456;SDS011;30159;49.316;8.558;2023-09-07T02:04:37;2.73;;;2.53;;
44456;SDS011;30159;49.316;8.558;2023-09-07T02:07:03;2.00;;;1.80;;
44456;SDS011;30159;49.316;8.558;2023-09-07T02:09:31;2.03;;;1.83;;
44456;SDS011;30159;49.316;8.558;2023-09-07T02:11:58;1.40;;;1.30;;
44456;SDS011;30159;49.316;8.558;2023-09-07T02:14:26;1.93;;;1.83;;
44456;SDS011;30159;49.316;8.558;2023-09-07T02:16:52;2.70;;;1.90;;
44456;SDS011;30159;49.316;8.558;2023-09-07T02:19:19;2.67;;;1.60;;
44456;SDS011;30159;49.316;8.558;2023-09-07T02:21:47;2.20;;;1.80;;
44456;SDS011;30159;49.316;8.558;2023-09-07T02:24:15;2.67;;;2.03;;
44456;SDS011;30159;49.316;8.558;2023-09-07T02:26:41;2.53;;;2.20;;
44456;SDS011;30159;49.316;8.558;2023-09-07T02:29:10;2.03;;;1.70;;
44456;SDS011;30159;49.316;8.558;2023-09-07T02:31:38;2.07;;;1.87;;
44456;SDS011;30159;49.316;8.558;2023-09-07T02:34:05;3.03;;;2.00;;
44456;SDS011;30159;49.316;8.558;2023-09-07T02:36:33;2.27;;;1.80;;
44456;SDS011;30159;49.316;8.558;2023-09-07T02:39:00;2.10;;;1.70;;
44456;SDS011;30159;49.316;8.558;2023-09-07T02:41:27;2.93;;;1.90;;
44456;SDS011;30159;49.316;8.558;2023-09-07T02:43:53;1.77;;;1.67;;
44456;SDS011;30159;49.316;8.558;2023-09-07T02:46:20;1.83;;;1.73;;
44456;SDS011;30159;49.316;8.558;2023-09-07T02:48:48;2.63;;;2.43;;
44456;SDS011;30159;49.316;8.558;2023-09-07T02:51:14;4.13;;;1.50;;
44456;SDS011;30159;49.316;8.558;2023-09-07T02:53:42;2.07;;;1.87;;
44456;SDS011;30159;49.316;8.558;2023-09-07T02:56:09;2.80;;;2.30;;
44456;SDS011;30159;49.316;8.558;2023-09-07T02:58:36;2.43;;;2.13;;
44456;SDS011;30159;49.316;8.558;2023-09-07T03:01:05;2.17;;;1.80;;
44456;SDS011;30159;49.316;8.558;2023-09-07T03:03:33;3.77;;;1.97;;
44456;SDS011;30159;49.316;8.558;2023-09-07T03:06:08;1.70;;;1.60;;
44456;SDS011;30159;49.316;8.558;2023-09-07T03:08:35;1.80;;;1.70;;
44456;SDS011;30159;49.316;8.558;2023-09-07T03:11:02;2.50;;;2.20;;
44456;SDS011;30159;49.316;8.558;2023-09-07T03:13:29;2.17;;;1.77;;
44456;SDS011;30159;49.316;8.558;2023-09-07T03:15:56;2.23;;;2.03;;
44456;SDS011;30159;49.316;8.558;2023-09-07T03:18:22;1.97;;;1.67;;
44456;SDS011;30159;49.316;8.558;2023-09-07T03:20:49;2.03;;;1.60;;
44456;SDS011;30159;49.316;8.558;2023-09-07T03:23:17;2.93;;;2.73;;
44456;SDS011;30159;49.316;8.558;2023-09-07T03:25:44;2.40;;;1.97;;
44456;SDS011;30159;49.316;8.558;2023-09-07T03:28:11;7.90;;;2.70;;
44456;SDS011;30159;49.316;8.558;2023-09-07T03:30:37;2.10;;;1.90;;
44456;SDS011;30159;49.316;8.558;2023-09-07T03:33:04;3.57;;;2.67;;
44456;SDS011;30159;49.316;8.558;2023-09-07T03:35:31;2.07;;;1.87;;
44456;SDS011;30159;49.316;8.558;2023-09-07T03:37:58;2.00;;;1.90;;
44456;SDS011;30159;49.316;8.558;2023-09-07T03:40:26;2.77;;;2.10;;
44456;SDS011;30159;49.316;8.558;2023-09-07T03:42:53;2.87;;;2.00;;
44456;SDS011;30159;49.316;8.558;2023-09-07T03:45:20;2.20;;;1.70;;
44456;SDS011;30159;49.316;8.558;2023-09-07T03:47:46;1.63;;;1.53;;
44456;SDS011;30159;49.316;8.558;2023-09-07T03:50:13;1.80;;;1.70;;
44456;SDS011;30159;49.316;8.558;2023-09-07T03:52:40;1.97;;;1.87;;
44456;SDS011;30159;49.316;8.558;2023-09-07T03:55:07;7.70;;;1.80;;
44456;SDS011;30159;49.316;8.558;2023-09-07T03:57:35;5.67;;;1.77;;
44456;SDS011;30159;49.316;8.558;2023-09-07T04:00:02;2.77;;;2.37;;
44456;SDS011;30159;49.316;8.558;2023-09-07T04:02:33;2.13;;;1.93;;
44456;SDS011;30159;49.316;8.558;2023-09-07T04:04:59;3.40;;;2.20;;
44456;SDS011;30159;49.316;8.558;2023-09-07T04:07:30;2.07;;;1.60;;
44456;SDS011;30159;49.316;8.558;2023-09-07T04:09:56;2.00;;;1.83;;
44456;SDS011;30159;49.316;8.558;2023-09-07T04:12:23;2.20;;;2.00;;
44456;SDS011;30159;49.316;8.558;2023-09-07T04:14:52;2.60;;;2.10;;
44456;SDS011;30159;49.316;8.558;2023-09-07T04:17:18;3.10;;;1.60;;
44456;SDS011;30159;49.316;8.558;2023-09-07T04:19:45;2.30;;;2.10;;
44456;SDS011;30159;49.316;8.558;2023-09-07T04:22:12;2.30;;;2.10;;
44456;SDS011;30159;49.316;8.558;2023-09-07T04:24:38;2.40;;;2.00;;
44456;SDS011;30159;49.316;8.558;2023-09-07T04:27:06;2.43;;;2.23;;
44456;SDS011;30159;49.316;8.558;2023-09-07T04:29:33;3.40;;;3.20;;
44456;SDS011;30159;49.316;8.558;2023-09-07T04:32:01;2.63;;;2.43;;
44456;SDS011;30159;49.316;8.558;2023-09-07T04:34:27;2.20;;;1.80;;
44456;SDS011;30159;49.316;8.558;2023-09-07T04:36:54;1.70;;;1.60;;
44456;SDS011;30159;49.316;8.558;2023-09-07T04:39:20;2.10;;;1.90;;
44456;SDS011;30159;49.316;8.558;2023-09-07T04:41:47;1.77;;;1.67;;
44456;SDS011;30159;49.316;8.558;2023-09-07T04:44:14;2.73;;;2.20;;
44456;SDS011;30159;49.316;8.558;2023-09-07T04:46:40;2.30;;;2.10;;
44456;SDS011;30159;49.316;8.558;2023-09-07T04:49:08;2.40;;;1.70;;
44456;SDS011;30159;49.316;8.558;2023-09-07T04:51:35;2.73;;;2.00;;
44456;SDS011;30159;49.316;8.558;2023-09-07T04:54:01;2.20;;;2.00;;
44456;SDS011;30159;49.316;8.558;2023-09-07T04:56:28;1.67;;;1.57;;
44456;SDS011;30159;49.316;8.558;2023-09-07T04:58:55;2.27;;;2.00;;
44456;SDS011;30159;49.316;8.558;2023-09-07T05:01:21;2.93;;;2.73;;
44456;SDS011;30159;49.316;8.558;2023-09-07T05:03:49;5.03;;;3.27;;
44456;SDS011;30159;49.316;8.558;2023-09-07T05:06:18;2.97;;;2.67;;
44456;SDS011;30159;49.316;8.558;2023-09-07T05:08:45;4.60;;;2.33;;
44456;SDS011;30159;49.316;8.558;2023-09-07T05:11:11;2.63;;;2.43;;
44456;SDS011;30159;49.316;8.558;2023-09-07T05:13:38;3.53;;;2.20;;
44456;SDS011;30159;49.316;8.558;2023-09-07T05:16:04;3.40;;;2.70;;
44456;SDS011;30159;49.316;8.558;2023-09-07T05:18:31;3.10;;;2.80;;
44456;SDS011;30159;49.316;8.558;2023-09-07T05:20:58;4.00;;;2.27;;
44456;SDS011;30159;49.316;8.558;2023-09-07T05:23:26;2.33;;;2.13;;
44456;SDS011;30159;49.316;8.558;2023-09-07T05:25:53;2.40;;;2.20;;
44456;SDS011;30159;49.316;8.558;2023-09-07T05:28:21;2.40;;;2.17;;
44456;SDS011;30159;49.316;8.558;2023-09-07T05:30:48;3.27;;;3.00;;
44456;SDS011;30159;49.316;8.558;2023-09-07T05:33:16;3.13;;;2.87;;
44456;SDS011;30159;49.316;8.558;2023-09-07T05:35:43;5.90;;;3.70;;
44456;SDS011;30159;49.316;8.558;2023-09-07T05:38:11;3.60;;;2.70;;
44456;SDS011;30159;49.316;8.558;2023-09-07T05:40:40;3.40;;;3.10;;
44456;SDS011;30159;49.316;8.558;2023-09-07T05:43:08;3.40;;;2.97;;
44456;SDS011;30159;49.316;8.558;2023-09-07T05:45:35;3.80;;;2.60;;
44456;SDS011;30159;49.316;8.558;2023-09-07T05:48:03;7.20;;;3.03;;
44456;SDS011;30159;49.316;8.558;2023-09-07T05:50:30;4.23;;;3.30;;
44456;SDS011;30159;49.316;8.558;2023-09-07T05:52:57;3.63;;;3.33;;
44456;SDS011;30159;49.316;8.558;2023-09-07T05:55:27;3.73;;;3.40;;
44456;SDS011;30159;49.316;8.558;2023-09-07T05:57:55;4.00;;;3.70;;
44456;SDS011;30159;49.316;8.558;2023-09-07T06:00:22;4.03;;;3.70;;
44456;SDS011;30159;49.316;8.558;2023-09-07T06:02:49;5.37;;;3.60;;
44456;SDS011;30159;49.316;8.558;2023-09-07T06:05:16;3.30;;;3.00;;
44456;SDS011;30159;49.316;8.558;2023-09-07T06:07:43;4.43;;;4.03;;
44456;SDS011;30159;49.316;8.558;2023-09-07T06:10:10;4.57;;;4.17;;
44456;SDS011;30159;49.316;8.558;2023-09-07T06:12:37;5.90;;;4.10;;
44456;SDS011;30159;49.316;8.558;2023-09-07T06:15:05;3.80;;;3.50;;
44456;SDS011;30159;49.316;8.558;2023-09-07T06:17:34;4.60;;;3.97;;
44456;SDS011;30159;49.316;8.558;2023-09-07T06:20:01;3.83;;;3.47;;
44456;SDS011;30159;49.316;8.558;2023-09-07T06:22:28;3.73;;;3.40;;
44456;SDS011;30159;49.316;8.558;2023-09-07T06:24:55;4.50;;;4.20;;
44456;SDS011;30159;49.316;8.558;2023-09-07T06:27:22;4.47;;;4.07;;
44456;SDS011;30159;49.316;8.558;2023-09-07T06:29:48;4.20;;;3.90;;
44456;SDS011;30159;49.316;8.558;2023-09-07T06:32:17;4.80;;;3.77;;
44456;SDS011;30159;49.316;8.558;2023-09-07T06:34:43;4.10;;;3.80;;
44456;SDS011;30159;49.316;8.558;2023-09-07T06:37:10;3.57;;;3.23;;
44456;SDS011;30159;49.316;8.558;2023-09-07T06:39:37;3.73;;;3.50;;
44456;SDS011;30159;49.316;8.558;2023-09-07T06:42:04;4.43;;;4.03;;
44456;SDS011;30159;49.316;8.558;2023-09-07T06:44:33;4.40;;;3.97;;
44456;SDS011;30159;49.316;8.558;2023-09-07T06:47:00;4.13;;;3.77;;
44456;SDS011;30159;49.316;8.558;2023-09-07T06:49:28;4.07;;;3.77;;
44456;SDS011;30159;49.316;8.558;2023-09-07T06:51:55;2.80;;;2.60;;
44456;SDS011;30159;49.316;8.558;2023-09-07T06:54:22;3.93;;;3.60;;
44456;SDS011;30159;49.316;8.558;2023-09-07T06:56:49;3.97;;;3.67;;
44456;SDS011;30159;49.316;8.558;2023-09-07T06:59:15;4.10;;;3.70;;
44456;SDS011;30159;49.316;8.558;2023-09-07T07:01:42;2.83;;;2.63;;
44456;SDS011;30159;49.316;8.558;2023-09-07T07:04:09;3.23;;;2.73;;
44456;SDS011;30159;49.316;8.558;2023-09-07T07:06:37;4.00;;;3.20;;
44456;SDS011;30159;49.316;8.558;2023-09-07T07:09:03;3.63;;;3.43;;
44456;SDS011;30159;49.316;8.558;2023-09-07T07:11:31;5.43;;;3.00;;
44456;SDS011;30159;49.316;8.558;2023-09-07T07:13:57;3.90;;;3.47;;
44456;SDS011;30159;49.316;8.558;2023-09-07T07:16:24;2.73;;;2.53;;
44456;SDS011;30159;49.316;8.558;2023-09-07T07:18:51;2.40;;;2.20;;
44456;SDS011;30159;49.316;8.558;2023-09-07T07:21:17;2.30;;;2.10;;
44456;SDS011;30159;49.316;8.558;2023-09-07T07:23:45;2.00;;;1.90;;
44456;SDS011;30159;49.316;8.558;2023-09-07T07:26:12;2.00;;;1.90;;
44456;SDS011;30159;49.316;8.558;2023-09-07T07:28:38;2.40;;;2.20;;
44456;SDS011;30159;49.316;8.558;2023-09-07T07:31:08;2.10;;;2.00;;
44456;SDS011;30159;49.316;8.558;2023-09-07T07:33:35;2.10;;;2.00;;
44456;SDS011;30159;49.316;8.558;2023-09-07T07:36:02;2.90;;;2.70;;
44456;SDS011;30159;49.316;8.558;2023-09-07T07:38:29;2.50;;;2.30;;
44456;SDS011;30159;49.316;8.558;2023-09-07T07:40:57;2.30;;;2.10;;
44456;SDS011;30159;49.316;8.558;2023-09-07T07:43:24;1.90;;;1.80;;
44456;SDS011;30159;49.316;8.558;2023-09-07T07:45:51;2.67;;;2.47;;
44456;SDS011;30159;49.316;8.558;2023-09-07T07:48:18;2.50;;;2.30;;
44456;SDS011;30159;49.316;8.558;2023-09-07T07:50:45;2.20;;;2.07;;
44456;SDS011;30159;49.316;8.558;2023-09-07T07:53:12;2.30;;;2.10;;
44456;SDS011;30159;49.316;8.558;2023-09-07T07:55:39;2.60;;;2.10;;
44456;SDS011;30159;49.316;8.558;2023-09-07T07:58:08;2.13;;;1.93;;
44456;SDS011;30159;49.316;8.558;2023-09-07T08:00:35;2.40;;;2.20;;
44456;SDS011;30159;49.316;8.558;2023-09-07T08:03:03;2.50;;;2.30;;
44456;SDS011;30159;49.316;8.558;2023-09-07T08:05:31;2.93;;;2.53;;
44456;SDS011;30159;49.316;8.558;2023-09-07T08:07:58;2.47;;;2.30;;
44456;SDS011;30159;49.316;8.558;2023-09-07T08:10:25;2.30;;;2.10;;
44456;SDS011;30159;49.316;8.558;2023-09-07T08:12:53;2.57;;;2.37;;
44456;SDS011;30159;49.316;8.558;2023-09-07T08:15:21;2.10;;;1.90;;
44456;SDS011;30159;49.316;8.558;2023-09-07T08:17:50;2.50;;;2.30;;
44456;SDS011;30159;49.316;8.558;2023-09-07T08:20:16;2.43;;;2.23;;
44456;SDS011;30159;49.316;8.558;2023-09-07T08:22:43;2.63;;;2.43;;
44456;SDS011;30159;49.316;8.558;2023-09-07T08:25:11;2.63;;;2.43;;
44456;SDS011;30159;49.316;8.558;2023-09-07T08:27:39;2.97;;;2.00;;
44456;SDS011;30159;49.316;8.558;2023-09-07T08:30:09;4.30;;;2.60;;
44456;SDS011;30159;49.316;8.558;2023-09-07T08:32:38;2.23;;;2.03;;
44456;SDS011;30159;49.316;8.558;2023-09-07T08:35:05;2.30;;;2.10;;
44456;SDS011;30159;49.316;8.558;2023-09-07T08:37:34;4.43;;;2.40;;
44456;SDS011;30159;49.316;8.558;2023-09-07T08:40:00;3.10;;;2.80;;
44456;SDS011;30159;49.316;8.558;2023-09-07T08:42:28;2.03;;;1.93;;
44456;SDS011;30159;49.316;8.558;2023-09-07T08:44:55;2.17;;;1.97;;
44456;SDS011;30159;49.316;8.558;2023-09-07T08:47:31;2.20;;;2.00;;
44456;SDS011;30159;49.316;8.558;2023-09-07T08:50:01;2.30;;;2.13;;
44456;SDS011;30159;49.316;8.558;2023-09-07T08:52:28;2.90;;;2.70;;
44456;SDS011;30159;49.316;8.558;2023-09-07T08:54:55;2.77;;;2.57;;
44456;SDS011;30159;49.316;8.558;2023-09-07T08:57:23;2.50;;;2.30;;
44456;SDS011;30159;49.316;8.558;2023-09-07T08:59:51;2.47;;;2.27;;
44456;SDS011;30159;49.316;8.558;2023-09-07T09:02:17;2.27;;;2.07;;
44456;SDS011;30159;49.316;8.558;2023-09-07T09:04:44;2.27;;;2.17;;
44456;SDS011;30159;49.316;8.558;2023-09-07T09:07:12;2.43;;;2.23;;
44456;SDS011;30159;49.316;8.558;2023-09-07T09:09:38;3.87;;;2.30;;
44456;SDS011;30159;49.316;8.558;2023-09-07T09:12:08;2.60;;;2.40;;
44456;SDS011;30159;49.316;8.558;2023-09-07T09:14:36;2.93;;;2.10;;
44456;SDS011;30159;49.316;8.558;2023-09-07T09:17:03;2.17;;;2.07;;
44456;SDS011;30159;49.316;8.558;2023-09-07T09:19:33;2.17;;;1.93;;
44456;SDS011;30159;49.316;8.558;2023-09-07T09:22:00;3.23;;;3.03;;
44456;SDS011;30159;49.316;8.558;2023-09-07T09:24:32;3.50;;;2.23;;
44456;SDS011;30159;49.316;8.558;2023-09-07T09:27:00;2.17;;;2.00;;
44456;SDS011;30159;49.316;8.558;2023-09-07T09:29:26;5.20;;;2.73;;
44456;SDS011;30159;49.316;8.558;2023-09-07T09:31:53;2.80;;;2.60;;
44456;SDS011;30159;49.316;8.558;2023-09-07T09:34:20;2.40;;;2.20;;
44456;SDS011;30159;49.316;8.558;2023-09-07T09:36:47;2.20;;;2.00;;
44456;SDS011;30159;49.316;8.558;2023-09-07T09:39:21;2.40;;;2.20;;
44456;SDS011;30159;49.316;8.558;2023-09-07T09:41:50;2.03;;;1.93;;
44456;SDS011;30159;49.316;8.558;2023-09-07T09:44:18;2.37;;;2.17;;
44456;SDS011;30159;49.316;8.558;2023-09-07T09:46:47;2.03;;;1.90;;
44456;SDS011;30159;49.316;8.558;2023-09-07T09:49:14;2.73;;;2.50;;
44456;SDS011;30159;49.316;8.558;2023-09-07T09:51:42;2.10;;;2.00;;
44456;SDS011;30159;49.316;8.558;2023-09-07T09:54:09;3.07;;;2.33;;
44456;SDS011;30159;49.316;8.558;2023-09-07T09:56:36;2.10;;;1.90;;
44456;SDS011;30159;49.316;8.558;2023-09-07T09:59:03;2.90;;;2.00;;
44456;SDS011;30159;49.316;8.558;2023-09-07T10:01:36;2.60;;;2.40;;
44456;SDS011;30159;49.316;8.558;2023-09-07T10:04:06;1.80;;;1.70;;
44456;SDS011;30159;49.316;8.558;2023-09-07T10:06:35;2.40;;;2.20;;
44456;SDS011;30159;49.316;8.558;2023-09-07T10:09:04;2.50;;;2.00;;
44456;SDS011;30159;49.316;8.558;2023-09-07T10:11:36;3.33;;;2.00;;
44456;SDS011;30159;49.316;8.558;2023-09-07T10:14:06;2.67;;;2.53;;
44456;SDS011;30159;49.316;8.558;2023-09-07T10:16:42;2.83;;;2.37;;
44456;SDS011;30159;49.316;8.558;2023-09-07T10:19:16;2.70;;;2.50;;
44456;SDS011;30159;49.316;8.558;2023-09-07T10:21:43;2.43;;;2.23;;
44456;SDS011;30159;49.316;8.558;2023-09-07T10:24:10;2.00;;;1.80;;
44456;SDS011;30159;49.316;8.558;2023-09-07T10:26:37;1.93;;;1.83;;
44456;SDS011;30159;49.316;8.558;2023-09-07T10:29:03;4.17;;;2.10;;
44456;SDS011;30159;49.316;8.558;2023-09-07T10:31:32;2.20;;;2.00;;
44456;SDS011;30159;49.316;8.558;2023-09-07T10:34:07;2.67;;;2.47;;
44456;SDS011;30159;49.316;8.558;2023-09-07T10:36:35;2.40;;;2.20;;
44456;SDS011;30159;49.316;8.558;2023-09-07T10:39:03;2.30;;;2.10;;
44456;SDS011;30159;49.316;8.558;2023-09-07T10:41:39;2.40;;;2.20;;
44456;SDS011;30159;49.316;8.558;2023-09-07T10:44:06;3.07;;;2.20;;
44456;SDS011;30159;49.316;8.558;2023-09-07T10:46:34;2.30;;;2.10;;
44456;SDS011;30159;49.316;8.558;2023-09-07T10:49:00;2.47;;;2.27;;
44456;SDS011;30159;49.316;8.558;2023-09-07T10:51:28;2.30;;;2.10;;
44456;SDS011;30159;49.316;8.558;2023-09-07T10:53:55;2.40;;;2.00;;
44456;SDS011;30159;49.316;8.558;2023-09-07T10:56:24;3.30;;;1.97;;
44456;SDS011;30159;49.316;8.558;2023-09-07T10:58:53;2.00;;;1.83;;
44456;SDS011;30159;49.316;8.558;2023-09-07T11:01:20;2.00;;;1.90;;
44456;SDS011;30159;49.316;8.558;2023-09-07T11:03:48;2.37;;;2.17;;
44456;SDS011;30159;49.316;8.558;2023-09-07T11:06:15;2.50;;;2.30;;
44456;SDS011;30159;49.316;8.558;2023-09-07T11:08:47;2.80;;;2.60;;
44456;SDS011;30159;49.316;8.558;2023-09-07T11:11:14;3.00;;;2.80;;
44456;SDS011;30159;49.316;8.558;2023-09-07T11:13:41;2.30;;;2.10;;
44456;SDS011;30159;49.316;8.558;2023-09-07T11:16:09;2.10;;;1.90;;
44456;SDS011;30159;49.316;8.558;2023-09-07T11:18:36;2.73;;;2.07;;
44456;SDS011;30159;49.316;8.558;2023-09-07T11:21:04;2.20;;;2.10;;
44456;SDS011;30159;49.316;8.558;2023-09-07T11:23:32;2.60;;;2.40;;
44456;SDS011;30159;49.316;8.558;2023-09-07T11:26:03;2.60;;;2.40;;
44456;SDS011;30159;49.316;8.558;2023-09-07T11:28:30;2.40;;;2.20;;
44456;SDS011;30159;49.316;8.558;2023-09-07T11:30:59;2.60;;;2.20;;
44456;SDS011;30159;49.316;8.558;2023-09-07T11:33:26;2.43;;;2.30;;
44456;SDS011;30159;49.316;8.558;2023-09-07T11:35:53;2.53;;;2.00;;
44456;SDS011;30159;49.316;8.558;2023-09-07T11:38:21;2.23;;;1.90;;
44456;SDS011;30159;49.316;8.558;2023-09-07T11:40:48;2.10;;;2.00;;
44456;SDS011;30159;49.316;8.558;2023-09-07T11:43:15;2.40;;;2.20;;
44456;SDS011;30159;49.316;8.558;2023-09-07T11:45:44;2.20;;;2.00;;
44456;SDS011;30159;49.316;8.558;2023-09-07T11:48:12;2.47;;;2.00;;
44456;SDS011;30159;49.316;8.558;2023-09-07T11:50:40;2.47;;;2.10;;
44456;SDS011;30159;49.316;8.558;2023-09-07T11:53:07;2.20;;;2.10;;
44456;SDS011;30159;49.316;8.558;2023-09-07T11:55:35;1.97;;;1.87;;
44456;SDS011;30159;49.316;8.558;2023-09-07T11:58:02;2.00;;;1.90;;
44456;SDS011;30159;49.316;8.558;2023-09-07T12:00:30;2.70;;;2.20;;
44456;SDS011;30159;49.316;8.558;2023-09-07T12:02:57;2.47;;;2.33;;
44456;SDS011;30159;49.316;8.558;2023-09-07T12:05:24;2.50;;;2.30;;
44456;SDS011;30159;49.316;8.558;2023-09-07T12:07:50;2.00;;;1.90;;
44456;SDS011;30159;49.316;8.558;2023-09-07T12:10:17;2.20;;;2.10;;
44456;SDS011;30159;49.316;8.558;2023-09-07T12:12:45;2.20;;;2.10;;
44456;SDS011;30159;49.316;8.558;2023-09-07T12:15:11;2.40;;;2.20;;
44456;SDS011;30159;49.316;8.558;2023-09-07T12:17:38;2.00;;;1.87;;
44456;SDS011;30159;49.316;8.558;2023-09-07T12:20:06;2.70;;;2.50;;
44456;SDS011;30159;49.316;8.558;2023-09-07T12:22:35;2.60;;;2.50;;
44456;SDS011;30159;49.316;8.558;2023-09-07T12:25:02;3.90;;;2.37;;
44456;SDS011;30159;49.316;8.558;2023-09-07T12:27:31;2.57;;;2.27;;
44456;SDS011;30159;49.316;8.558;2023-09-07T12:29:59;2.33;;;2.13;;
44456;SDS011;30159;49.316;8.558;2023-09-07T12:32:31;2.40;;;2.20;;
44456;SDS011;30159;49.316;8.558;2023-09-07T12:34:57;2.03;;;1.93;;
44456;SDS011;30159;49.316;8.558;2023-09-07T12:37:24;1.90;;;1.80;;
44456;SDS011;30159;49.316;8.558;2023-09-07T12:39:51;2.30;;;2.10;;
44456;SDS011;30159;49.316;8.558;2023-09-07T12:42:17;2.93;;;1.93;;
44456;SDS011;30159;49.316;8.558;2023-09-07T12:44:44;1.93;;;1.83;;
44456;SDS011;30159;49.316;8.558;2023-09-07T12:47:12;2.90;;;2.70;;
44456;SDS011;30159;49.316;8.558;2023-09-07T12:49:38;2.93;;;2.20;;
44456;SDS011;30159;49.316;8.558;2023-09-07T12:52:06;1.97;;;1.87;;
44456;SDS011;30159;49.316;8.558;2023-09-07T12:54:36;4.23;;;2.00;;
44456;SDS011;30159;49.316;8.558;2023-09-07T12:57:03;2.00;;;1.90;;
44456;SDS011;30159;49.316;8.558;2023-09-07T12:59:30;2.00;;;1.90;;
44456;SDS011;30159;49.316;8.558;2023-09-07T13:01:56;2.63;;;2.37;;
44456;SDS011;30159;49.316;8.558;2023-09-07T13:04:24;1.87;;;1.60;;
44456;SDS011;30159;49.316;8.558;2023-09-07T13:06:51;2.00;;;1.90;;
44456;SDS011;30159;49.316;8.558;2023-09-07T13:09:18;1.90;;;1.80;;
44456;SDS011;30159;49.316;8.558;2023-09-07T13:11:47;1.83;;;1.63;;
44456;SDS011;30159;49.316;8.558;2023-09-07T13:14:13;4.03;;;2.27;;
44456;SDS011;30159;49.316;8.558;2023-09-07T13:16:42;1.73;;;1.63;;
44456;SDS011;30159;49.316;8.558;2023-09-07T13:19:09;2.50;;;2.30;;
44456;SDS011;30159;49.316;8.558;2023-09-07T13:21:40;2.13;;;2.03;;
44456;SDS011;30159;49.316;8.558;2023-09-07T13:24:06;2.10;;;2.00;;
44456;SDS011;30159;49.316;8.558;2023-09-07T13:26:32;4.17;;;2.10;;
44456;SDS011;30159;49.316;8.558;2023-09-07T13:28:59;3.70;;;2.20;;
44456;SDS011;30159;49.316;8.558;2023-09-07T13:31:25;2.10;;;2.00;;
44456;SDS011;30159;49.316;8.558;2023-09-07T13:33:53;2.33;;;2.23;;
44456;SDS011;30159;49.316;8.558;2023-09-07T13:36:20;1.70;;;1.60;;
44456;SDS011;30159;49.316;8.558;2023-09-07T13:38:48;1.87;;;1.77;;
44456;SDS011;30159;49.316;8.558;2023-09-07T13:41:14;1.80;;;1.70;;
44456;SDS011;30159;49.316;8.558;2023-09-07T13:43:41;2.50;;;2.30;;
44456;SDS011;30159;49.316;8.558;2023-09-07T13:46:08;2.43;;;1.90;;
44456;SDS011;30159;49.316;8.558;2023-09-07T13:48:34;2.40;;;2.20;;
44456;SDS011;30159;49.316;8.558;2023-09-07T13:51:01;2.20;;;2.00;;
44456;SDS011;30159;49.316;8.558;2023-09-07T13:53:27;2.63;;;2.00;;
44456;SDS011;30159;49.316;8.558;2023-09-07T13:55:55;1.90;;;1.80;;
44456;SDS011;30159;49.316;8.558;2023-09-07T13:58:22;2.70;;;2.50;;
44456;SDS011;30159;49.316;8.558;2023-09-07T14:00:49;2.60;;;1.87;;
44456;SDS011;30159;49.316;8.558;2023-09-07T14:03:16;1.67;;;1.57;;
44456;SDS011;30159;49.316;8.558;2023-09-07T14:05:42;1.90;;;1.70;;
44456;SDS011;30159;49.316;8.558;2023-09-07T14:08:09;2.30;;;2.10;;
44456;SDS011;30159;49.316;8.558;2023-09-07T14:10:36;2.43;;;1.80;;
44456;SDS011;30159;49.316;8.558;2023-09-07T14:13:04;2.30;;;1.93;;
44456;SDS011;30159;49.316;8.558;2023-09-07T14:15:30;2.30;;;2.10;;
44456;SDS011;30159;49.316;8.558;2023-09-07T14:17:57;2.07;;;1.90;;
44456;SDS011;30159;49.316;8.558;2023-09-07T14:20:26;2.17;;;2.07;;
44456;SDS011;30159;49.316;8.558;2023-09-07T14:22:52;1.90;;;1.80;;
44456;SDS011;30159;49.316;8.558;2023-09-07T14:25:21;2.40;;;2.30;;
44456;SDS011;30159;49.316;8.558;2023-09-07T14:27:48;1.70;;;1.60;;
44456;SDS011;30159;49.316;8.558;2023-09-07T14:30:16;5.40;;;2.10;;
44456;SDS011;30159;49.316;8.558;2023-09-07T14:32:43;2.40;;;2.30;;
44456;SDS011;30159;49.316;8.558;2023-09-07T14:35:10;2.10;;;1.90;;
44456;SDS011;30159;49.316;8.558;2023-09-07T14:37:37;2.20;;;2.00;;
44456;SDS011;30159;49.316;8.558;2023-09-07T14:40:04;4.17;;;2.17;;
44456;SDS011;30159;49.316;8.558;2023-09-07T14:42:32;1.83;;;1.73;;
44456;SDS011;30159;49.316;8.558;2023-09-07T14:44:59;2.40;;;2.20;;
44456;SDS011;30159;49.316;8.558;2023-09-07T14:47:28;2.00;;;1.90;;
44456;SDS011;30159;49.316;8.558;2023-09-07T14:49:55;2.03;;;1.83;;